Terminal Aerodrome Forecast
Issued by NWS Charleston, WV

Current Version | Previous Version | Graphics & Text | Print | Product List | Glossary On
Versions: 1 2 3 4 5 6 7 8 9 10 11 12 13 14 15 16 17 18 19 20
000
FTUS41 KRLX 281742
TAFPKB
TAF
KPKB 281742Z 2818/2918 28012G18KT P6SM SCT035 OVC045
     FM282000 28008KT P6SM SCT035
     FM290000 29004KT P6SM FEW035
     FM290700 00000KT 3SM BR FEW025
     FM290900 00000KT 3/4SM BR SCT001
     FM291100 00000KT 4SM BR FEW150
     FM291200 00000KT P6SM SCT150
     FM291500 16004KT P6SM BKN100=

USA.gov is the U.S. government's official web portal to all federal, state and local government web resources and services.